Time;durP1;ratioP1;P1;durP2;ratioP2;P2;SDS_P1;SDS_P2;PMS_P1;PMS_P2;Temp;Humidity;BMP_temperature;BMP_pressure;BME280_temperature;BME280_humidity;BME280_pressure;Samples;Min_cycle;Max_cycle;Signal;HPM_P1;HPM_P2
2023/08/11 00:00:13;;;;;;;;;;;;;;;13.94;43.37;96075.28;4939570;28;20017;-72
2023/08/11 00:02:39;;;;;;;;;;;;;;;13.93;43.51;96073.63;4941737;28;19994;-73
2023/08/11 00:05:04;;;;;;;;;;;;;;;13.95;43.41;96075.06;4940182;28;19965;-72
2023/08/11 00:07:30;;;;;;;;;;;;;;;13.92;43.60;96075.47;4941143;28;20293;-73
2023/08/11 00:09:55;;;;;;;;;;;;;;;13.86;44.08;96086.88;4941382;28;19937;-72
2023/08/11 00:12:20;;;;;;;;;;;;;;;13.82;43.93;96082.94;4941445;28;19986;-73
2023/08/11 00:14:46;;;;;;;;;;;;;;;13.56;44.10;96086.91;4941729;28;19918;-72
2023/08/11 00:17:11;;;;;;;;;;;;;;;13.65;43.76;96085.81;4941475;28;19922;-72
2023/08/11 00:19:36;;;;;;;;;;;;;;;13.64;44.02;96089.53;4940758;28;19977;-72
2023/08/11 00:22:02;;;;;;;;;;;;;;;13.63;43.64;96087.84;4935964;28;20032;-73
2023/08/11 00:24:27;;;;;;;;;;;;;;;13.53;44.20;96087.31;4940897;28;19926;-72
2023/08/11 00:26:52;;;;;;;;;;;;;;;13.50;44.56;96088.50;4940829;28;19929;-72
2023/08/11 00:29:17;;;;;;;;;;;;;;;13.50;44.67;96085.00;4940995;28;19989;-73
2023/08/11 00:31:45;;;;;;;;;;;;;;;13.51;44.41;96090.16;4940959;28;20279;-72
2023/08/11 00:34:10;;;;;;;;;;;;;;;13.52;44.47;96093.66;4940119;28;20191;-74
2023/08/11 00:36:36;;;;;;;;;;;;;;;13.49;44.07;96089.50;4940616;28;19930;-72
2023/08/11 00:39:01;;;;;;;;;;;;;;;13.46;43.99;96089.06;4941353;28;20114;-72
2023/08/11 00:41:26;;;;;;;;;;;;;;;13.35;44.41;96085.81;4935836;28;19923;-72
2023/08/11 00:43:52;;;;;;;;;;;;;;;13.19;45.30;96086.81;4934536;28;20407;-73
2023/08/11 00:46:18;;;;;;;;;;;;;;;13.20;45.49;96088.50;4939802;29;20182;-73
2023/08/11 00:48:43;;;;;;;;;;;;;;;13.22;45.26;96089.13;4937756;28;19966;-73
2023/08/11 00:51:13;;;;;;;;;;;;;;;13.21;44.82;96083.97;4933604;28;19918;-73
2023/08/11 00:53:38;;;;;;;;;;;;;;;13.20;45.14;96087.66;4939138;28;20020;-72
2023/08/11 00:56:03;;;;;;;;;;;;;;;13.18;44.76;96085.16;4940351;28;20384;-73
2023/08/11 00:58:29;;;;;;;;;;;;;;;13.22;45.27;96085.66;4940826;28;20360;-73
2023/08/11 01:00:55;;;;;;;;;;;;;;;13.20;45.18;96076.97;4939228;28;20199;-72
2023/08/11 01:03:20;;;;;;;;;;;;;;;13.17;45.22;96079.00;4939618;28;19973;-73
2023/08/11 01:05:48;;;;;;;;;;;;;;;13.16;45.32;96081.88;4940352;28;20386;-73
2023/08/11 01:08:14;;;;;;;;;;;;;;;13.17;45.27;96071.00;4940189;28;19990;-70
2023/08/11 01:10:39;;;;;;;;;;;;;;;13.18;45.29;96077.16;4938497;28;19927;-71
2023/08/11 01:13:04;;;;;;;;;;;;;;;13.18;45.42;96069.13;4940270;28;20322;-71
2023/08/11 01:15:30;;;;;;;;;;;;;;;13.20;45.05;96066.28;4940453;28;19926;-73
2023/08/11 01:17:55;;;;;;;;;;;;;;;13.21;45.18;96068.78;4936401;29;20285;-72
2023/08/11 01:20:20;;;;;;;;;;;;;;;13.21;45.15;96067.94;4935253;28;20431;-71
2023/08/11 01:22:46;;;;;;;;;;;;;;;13.22;45.10;96069.59;4933654;28;20283;-71
2023/08/11 01:25:12;;;;;;;;;;;;;;;13.17;45.18;96057.63;4936031;28;19923;-73
2023/08/11 01:28:06;;;;;;;;;;;;;;;13.16;45.41;96061.28;4932068;28;20444;-72
2023/08/11 01:30:34;;;;;;;;;;;;;;;13.09;45.33;96056.88;4931902;28;20559;-72
2023/08/11 01:32:59;;;;;;;;;;;;;;;13.06;45.08;96055.41;4933927;28;19922;-73
2023/08/11 01:35:25;;;;;;;;;;;;;;;13.05;45.34;96059.06;4933344;28;19965;-73
2023/08/11 01:37:50;;;;;;;;;;;;;;;13.03;45.65;96055.75;4940277;28;19918;-73
2023/08/11 01:40:16;;;;;;;;;;;;;;;13.02;45.22;96046.91;4930985;28;19918;-72
2023/08/11 01:42:41;;;;;;;;;;;;;;;13.00;45.71;96056.13;4933861;29;19930;-73
2023/08/11 01:45:07;;;;;;;;;;;;;;;12.99;45.41;96049.09;4939065;28;19929;-73
2023/08/11 01:47:32;;;;;;;;;;;;;;;12.96;45.79;96050.28;4939509;28;19919;-72
2023/08/11 01:49:58;;;;;;;;;;;;;;;12.99;45.43;96046.41;4936944;29;19933;-73
2023/08/11 01:52:23;;;;;;;;;;;;;;;12.92;45.57;96049.81;4938343;29;19919;-73
2023/08/11 01:54:48;;;;;;;;;;;;;;;12.96;45.36;96052.97;4936938;29;20027;-73
2023/08/11 01:57:13;;;;;;;;;;;;;;;12.92;45.53;96049.81;4937660;28;20114;-72
2023/08/11 01:59:39;;;;;;;;;;;;;;;12.90;45.38;96051.84;4934111;28;20261;-73
2023/08/11 02:02:04;;;;;;;;;;;;;;;12.90;45.39;96046.50;4935649;29;19934;-73
2023/08/11 02:04:29;;;;;;;;;;;;;;;12.87;45.56;96054.88;4936015;28;19937;-73
2023/08/11 02:06:55;;;;;;;;;;;;;;;12.84;45.55;96051.72;4937258;28;20431;-73
2023/08/11 02:09:20;;;;;;;;;;;;;;;12.88;45.35;96043.19;4933317;29;20198;-73
2023/08/11 02:11:45;;;;;;;;;;;;;;;12.90;45.34;96048.34;4950108;28;20319;-73
2023/08/11 02:14:10;;;;;;;;;;;;;;;12.86;45.62;96053.22;4934451;28;19926;-73
2023/08/11 02:16:36;;;;;;;;;;;;;;;12.83;45.76;96056.25;4939244;28;19926;-73
2023/08/11 02:19:01;;;;;;;;;;;;;;;12.84;45.81;96051.72;4936021;28;19933;-73
2023/08/11 02:21:26;;;;;;;;;;;;;;;12.82;45.93;96056.44;4935993;28;19927;-73
2023/08/11 02:23:52;;;;;;;;;;;;;;;12.85;45.63;96058.75;4939455;28;19937;-73
2023/08/11 02:26:17;;;;;;;;;;;;;;;12.82;45.70;96051.94;4939412;28;19926;-72
2023/08/11 02:28:42;;;;;;;;;;;;;;;12.76;45.79;96055.31;4939016;28;19930;-73
2023/08/11 02:31:10;;;;;;;;;;;;;;;12.72;45.86;96046.00;4938927;28;19930;-73
2023/08/11 02:33:36;;;;;;;;;;;;;;;12.74;45.87;96057.34;4938222;28;19922;-73
2023/08/11 02:36:01;;;;;;;;;;;;;;;12.76;45.69;96047.31;4942945;28;19922;-74
2023/08/11 02:38:26;;;;;;;;;;;;;;;12.77;45.70;96047.13;4943933;28;20106;-73
2023/08/11 02:40:51;;;;;;;;;;;;;;;12.77;45.73;96051.63;4941960;28;20028;-72
2023/08/11 02:43:17;;;;;;;;;;;;;;;12.77;45.88;96036.44;4932948;28;20400;-73
2023/08/11 02:45:42;;;;;;;;;;;;;;;12.79;45.69;96034.41;4940930;28;20333;-70
2023/08/11 02:48:07;;;;;;;;;;;;;;;12.79;45.60;96034.41;4940923;28;19929;-71
2023/08/11 02:50:32;;;;;;;;;;;;;;;12.78;45.75;96029.25;4940113;28;19972;-73
2023/08/11 02:52:58;;;;;;;;;;;;;;;12.72;46.37;96035.31;4941041;28;20032;-70
2023/08/11 02:55:23;;;;;;;;;;;;;;;12.75;46.46;96034.97;4939909;28;20018;-70
2023/08/11 02:57:49;;;;;;;;;;;;;;;12.75;45.86;96029.63;4940745;28;19925;-73
2023/08/11 03:00:14;;;;;;;;;;;;;;;12.75;46.09;96040.31;4936382;28;19919;-73
2023/08/11 03:02:41;;;;;;;;;;;;;;;12.73;45.91;96039.66;4942337;28;19937;-73
2023/08/11 03:05:07;;;;;;;;;;;;;;;12.83;45.95;96029.53;4942239;28;20411;-70
2023/08/11 03:07:35;;;;;;;;;;;;;;;12.86;45.84;96031.03;4936817;28;19918;-72
2023/08/11 03:10:01;;;;;;;;;;;;;;;12.84;45.83;96033.88;4938007;28;20435;-73
2023/08/11 03:12:27;;;;;;;;;;;;;;;12.81;45.87;96028.88;4941257;28;20021;-73
2023/08/11 03:14:53;;;;;;;;;;;;;;;12.83;45.64;96029.53;4936221;28;20651;-72
2023/08/11 03:17:18;;;;;;;;;;;;;;;12.83;45.59;96034.03;4942195;28;19926;-71
2023/08/11 03:19:43;;;;;;;;;;;;;;;12.81;45.41;96031.56;4940414;28;19919;-71
2023/08/11 03:22:08;;;;;;;;;;;;;;;12.76;45.52;96032.13;4938982;28;20391;-71
2023/08/11 03:24:34;;;;;;;;;;;;;;;12.81;45.50;96028.88;4941551;28;20236;-73
2023/08/11 03:26:59;;;;;;;;;;;;;;;12.84;45.42;96028.53;4942837;28;19929;-71
2023/08/11 03:29:24;;;;;;;;;;;;;;;12.85;45.62;96032.84;4939110;28;20651;-73
2023/08/11 03:31:50;;;;;;;;;;;;;;;12.83;45.63;96040.22;4940519;28;19930;-73
2023/08/11 03:34:15;;;;;;;;;;;;;;;12.77;46.44;96030.25;4942447;28;19918;-71
2023/08/11 03:36:40;;;;;;;;;;;;;;;12.81;45.98;96023.53;4941745;28;20291;-70
2023/08/11 03:39:06;;;;;;;;;;;;;;;12.80;45.67;96029.91;4941326;28;19922;-73
2023/08/11 03:41:31;;;;;;;;;;;;;;;12.85;46.10;96038.19;4939844;28;19918;-71
2023/08/11 03:43:57;;;;;;;;;;;;;;;12.83;46.23;96034.88;4935944;28;20107;-72
2023/08/11 03:46:22;;;;;;;;;;;;;;;12.85;46.04;96038.19;4939350;28;19954;-72
2023/08/11 03:48:47;;;;;;;;;;;;;;;12.88;45.74;96040.50;4938164;28;20309;-73
2023/08/11 03:51:12;;;;;;;;;;;;;;;12.95;46.05;96031.78;4941670;29;20006;-73
2023/08/11 03:53:38;;;;;;;;;;;;;;;12.94;45.81;96036.28;4939940;28;19929;-72
2023/08/11 03:56:07;;;;;;;;;;;;;;;13.02;45.49;96040.75;4939042;29;19942;-73
2023/08/11 03:58:35;;;;;;;;;;;;;;;12.98;45.51;96034.09;4938056;29;19926;-72
2023/08/11 04:01:00;;;;;;;;;;;;;;;13.01;45.67;96037.25;4938229;28;19919;-72
2023/08/11 04:03:27;;;;;;;;;;;;;;;13.01;45.68;96036.41;4935735;28;20316;-74
2023/08/11 04:05:53;;;;;;;;;;;;;;;13.00;45.57;96030.25;4936163;29;20198;-72
2023/08/11 04:08:19;;;;;;;;;;;;;;;12.96;45.26;96028.06;4936371;28;19923;-73
2023/08/11 04:10:44;;;;;;;;;;;;;;;12.91;45.39;96036.63;4940391;29;19927;-73
2023/08/11 04:13:10;;;;;;;;;;;;;;;12.90;45.41;96030.47;4937478;28;19926;-72
2023/08/11 04:15:35;;;;;;;;;;;;;;;12.92;45.47;96031.09;4937115;28;19995;-74
2023/08/11 04:18:00;;;;;;;;;;;;;;;12.87;45.24;96033.50;4935812;28;19923;-73
2023/08/11 04:20:28;;;;;;;;;;;;;;;12.85;45.19;96029.38;4939101;28;20093;-74
2023/08/11 04:22:53;;;;;;;;;;;;;;;12.83;45.27;96032.22;4937896;28;20532;-72
2023/08/11 04:25:18;;;;;;;;;;;;;;;12.91;45.58;96033.97;4940557;28;19930;-74
2023/08/11 04:27:43;;;;;;;;;;;;;;;12.95;45.68;96026.44;4939315;28;20395;-73
2023/08/11 04:30:10;;;;;;;;;;;;;;;12.99;45.53;96031.22;4941114;28;20112;-72
2023/08/11 04:32:35;;;;;;;;;;;;;;;13.04;45.41;96031.53;4939073;28;19957;-72
2023/08/11 04:35:00;;;;;;;;;;;;;;;13.05;45.02;96035.84;4940463;28;19928;-74
2023/08/11 04:37:26;;;;;;;;;;;;;;;13.13;45.33;96032.25;4940940;28;19918;-71
2023/08/11 04:39:51;;;;;;;;;;;;;;;13.22;45.13;96029.50;4941514;28;20416;-72
2023/08/11 04:42:17;;;;;;;;;;;;;;;13.26;45.30;96038.81;4935129;28;19964;-74
2023/08/11 04:44:42;;;;;;;;;;;;;;;13.29;45.32;96039.25;4935257;28;20018;-71
2023/08/11 04:47:07;;;;;;;;;;;;;;;13.39;44.78;96028.28;4938815;28;19929;-73
2023/08/11 04:49:32;;;;;;;;;;;;;;;13.49;44.56;96037.88;4951574;28;20110;-73
2023/08/11 04:51:58;;;;;;;;;;;;;;;13.56;44.64;96044.13;4940187;28;19919;-74
2023/08/11 04:54:23;;;;;;;;;;;;;;;13.65;44.53;96036.81;4940061;29;20219;-74
2023/08/11 04:56:50;;;;;;;;;;;;;;;13.75;44.27;96039.22;4939410;28;19937;-73
2023/08/11 04:59:15;;;;;;;;;;;;;;;13.85;43.89;96044.25;4938185;28;19949;-74
2023/08/11 05:01:40;;;;;;;;;;;;;;;13.93;44.06;96053.03;4939105;29;19922;-73
2023/08/11 05:04:06;;;;;;;;;;;;;;;14.06;43.45;96046.16;4938490;28;20380;-71
2023/08/11 05:06:31;;;;;;;;;;;;;;;14.13;43.38;96044.38;4934622;29;19915;-71
2023/08/11 05:08:56;;;;;;;;;;;;;;;14.25;43.58;96049.25;4936566;28;20458;-73
2023/08/11 05:11:21;;;;;;;;;;;;;;;14.32;43.43;96039.44;4939838;28;20342;-73
2023/08/11 05:13:47;;;;;;;;;;;;;;;14.39;43.41;96044.84;4940280;29;19918;-71
2023/08/11 05:16:12;;;;;;;;;;;;;;;14.50;43.04;96057.72;4940341;28;19931;-73
2023/08/11 05:18:37;;;;;;;;;;;;;;;14.65;42.97;96052.28;4936196;28;19922;-74
2023/08/11 05:21:05;;;;;;;;;;;;;;;14.78;42.62;96048.06;4936534;28;19922;-73
2023/08/11 05:23:31;;;;;;;;;;;;;;;14.93;42.67;96056.84;4940090;28;20000;-73
2023/08/11 05:25:56;;;;;;;;;;;;;;;15.06;42.60;96052.63;4940007;28;19919;-73
2023/08/11 05:28:22;;;;;;;;;;;;;;;15.12;42.18;96057.19;4939597;28;19930;-73
2023/08/11 05:30:48;;;;;;;;;;;;;;;15.19;42.31;96059.91;4940456;29;20468;-71
2023/08/11 05:33:13;;;;;;;;;;;;;;;15.32;42.03;96056.47;4936110;29;19926;-71
2023/08/11 05:35:41;;;;;;;;;;;;;;;15.38;41.83;96061.06;4940248;28;19957;-73
2023/08/11 05:38:06;;;;;;;;;;;;;;;15.45;41.82;96056.56;4939450;28;19922;-73
2023/08/11 05:40:32;;;;;;;;;;;;;;;15.61;41.31;96055.41;4939211;28;20284;-72
2023/08/11 05:42:57;;;;;;;;;;;;;;;15.69;41.03;96054.44;4938185;29;19966;-73
2023/08/11 05:45:22;;;;;;;;;;;;;;;15.87;40.75;96064.63;4938929;28;20068;-73
2023/08/11 05:47:47;;;;;;;;;;;;;;;16.02;40.63;96058.25;4938070;28;19922;-73
2023/08/11 05:50:13;;;;;;;;;;;;;;;16.21;40.34;96062.03;4936369;28;19941;-73
2023/08/11 05:52:38;;;;;;;;;;;;;;;16.33;40.03;96059.56;4939223;28;20218;-72
2023/08/11 05:55:04;;;;;;;;;;;;;;;16.50;39.60;96068.09;4938993;29;19923;-73
2023/08/11 05:57:29;;;;;;;;;;;;;;;16.64;40.01;96062.72;4939640;28;20223;-73
2023/08/11 05:59:54;;;;;;;;;;;;;;;16.74;39.94;96055.09;4939209;28;20396;-71
2023/08/11 06:02:19;;;;;;;;;;;;;;;16.92;39.27;96064.38;4939576;29;19973;-73
2023/08/11 06:04:45;;;;;;;;;;;;;;;17.16;38.94;96054.03;4939291;28;19922;-72
2023/08/11 06:07:10;;;;;;;;;;;;;;;17.39;38.55;96058.13;4933015;29;19922;-72
2023/08/11 06:09:35;;;;;;;;;;;;;;;17.60;38.30;96056.19;4938332;28;19929;-74
2023/08/11 06:12:00;;;;;;;;;;;;;;;17.83;37.97;96062.94;4943108;28;19922;-73
2023/08/11 06:14:26;;;;;;;;;;;;;;;18.01;36.31;96057.72;4943187;29;19950;-73
2023/08/11 06:16:51;;;;;;;;;;;;;;;18.25;36.67;96063.38;4939404;28;20388;-73
2023/08/11 06:19:16;;;;;;;;;;;;;;;17.60;35.76;96065.09;4940840;28;20005;-73
2023/08/11 06:21:41;;;;;;;;;;;;;;;17.83;35.15;96066.47;4938194;28;20058;-73
2023/08/11 06:24:07;;;;;;;;;;;;;;;17.89;35.97;96068.34;4941236;28;19923;-73
2023/08/11 06:26:32;;;;;;;;;;;;;;;17.76;36.00;96071.91;4940745;28;20009;-73
2023/08/11 06:28:58;;;;;;;;;;;;;;;18.09;35.17;96067.44;4942615;28;20280;-73
2023/08/11 06:31:23;;;;;;;;;;;;;;;18.21;35.01;96064.03;4941790;28;19922;-73
2023/08/11 06:33:48;;;;;;;;;;;;;;;18.88;34.25;96070.84;4943388;28;19914;-72
2023/08/11 06:36:13;;;;;;;;;;;;;;;18.85;34.16;96071.28;4938476;28;19931;-73
2023/08/11 06:38:39;;;;;;;;;;;;;;;18.10;35.16;96073.63;4943059;29;19958;-73
2023/08/11 06:41:04;;;;;;;;;;;;;;;17.32;36.41;96078.84;4939937;28;19985;-73
2023/08/11 06:43:30;;;;;;;;;;;;;;;17.83;36.40;96079.94;4939339;28;20360;-72
2023/08/11 06:45:55;;;;;;;;;;;;;;;18.27;35.03;96074.78;4940745;29;20009;-73
2023/08/11 06:48:20;;;;;;;;;;;;;;;18.77;34.76;96077.78;4942046;28;19934;-73
2023/08/11 06:50:45;;;;;;;;;;;;;;;18.73;34.76;96076.59;4941216;29;19961;-73
2023/08/11 06:53:11;;;;;;;;;;;;;;;19.20;34.33;96078.88;4942764;28;19919;-73
2023/08/11 06:55:36;;;;;;;;;;;;;;;18.75;34.41;96075.31;4941400;28;19922;-73
2023/08/11 06:58:01;;;;;;;;;;;;;;;18.54;34.92;96079.16;4942753;28;20475;-73
2023/08/11 07:00:26;;;;;;;;;;;;;;;18.88;34.47;96084.34;4940572;28;19953;-74
2023/08/11 07:02:52;;;;;;;;;;;;;;;19.23;34.12;96085.72;4942545;28;19930;-73
2023/08/11 07:05:17;;;;;;;;;;;;;;;18.16;34.76;96091.63;4941785;28;19926;-73
2023/08/11 07:07:42;;;;;;;;;;;;;;;18.71;34.47;96076.81;4942332;28;19919;-73
2023/08/11 07:10:07;;;;;;;;;;;;;;;19.12;34.30;96088.09;4941090;28;20183;-73
2023/08/11 07:12:33;;;;;;;;;;;;;;;18.58;33.53;96084.97;4942253;28;20271;-74
2023/08/11 07:14:58;;;;;;;;;;;;;;;18.93;34.80;96082.63;4939357;28;19919;-73
2023/08/11 07:17:24;;;;;;;;;;;;;;;19.33;33.48;96086.03;4940295;28;19923;-73
2023/08/11 07:19:49;;;;;;;;;;;;;;;18.79;34.02;96089.19;4941413;28;20661;-73
2023/08/11 07:22:14;;;;;;;;;;;;;;;17.45;37.01;96092.28;4939755;28;19970;-73
2023/08/11 07:24:40;;;;;;;;;;;;;;;19.40;34.06;96091.38;4938060;28;20304;-72
2023/08/11 07:27:05;;;;;;;;;;;;;;;19.83;33.56;96081.56;4939724;28;19933;-73
2023/08/11 07:29:30;;;;;;;;;;;;;;;20.22;32.07;96084.81;4935556;28;19936;-73
2023/08/11 07:31:56;;;;;;;;;;;;;;;19.26;34.01;96091.47;4935840;28;20394;-74
2023/08/11 07:34:21;;;;;;;;;;;;;;;19.00;34.28;96081.78;4937582;28;19941;-73
2023/08/11 07:36:46;;;;;;;;;;;;;;;19.91;33.12;96088.53;4941234;28;20407;-73
2023/08/11 07:39:12;;;;;;;;;;;;;;;19.39;34.30;96090.56;4936330;28;19957;-73
2023/08/11 07:41:37;;;;;;;;;;;;;;;19.96;32.84;96089.53;4932415;29;19972;-74
2023/08/11 07:44:02;;;;;;;;;;;;;;;19.30;33.72;96098.13;4937292;28;20488;-74
2023/08/11 07:46:28;;;;;;;;;;;;;;;19.51;34.48;96096.03;4931687;29;20021;-73
2023/08/11 07:48:53;;;;;;;;;;;;;;;19.74;33.67;96097.25;4938507;28;19926;-73
2023/08/11 07:51:18;;;;;;;;;;;;;;;19.63;33.39;96098.81;4939623;29;19961;-74
2023/08/11 07:53:46;;;;;;;;;;;;;;;20.30;32.91;96109.91;4932663;28;20614;-73
2023/08/11 07:56:12;;;;;;;;;;;;;;;19.40;33.53;96105.69;4937249;28;19926;-74
2023/08/11 07:58:37;;;;;;;;;;;;;;;20.59;32.56;96097.41;4933368;29;19924;-73
2023/08/11 08:01:03;;;;;;;;;;;;;;;19.30;34.02;96108.06;4939848;28;20294;-73
2023/08/11 08:03:28;;;;;;;;;;;;;;;19.26;35.17;96114.94;4941041;28;19931;-73
2023/08/11 08:05:53;;;;;;;;;;;;;;;19.95;34.33;96104.06;4936841;28;19926;-74
2023/08/11 08:08:19;;;;;;;;;;;;;;;18.37;36.02;96109.34;4939700;28;19929;-73
2023/08/11 08:10:44;;;;;;;;;;;;;;;19.53;34.15;96107.44;4937669;28;19930;-74
2023/08/11 08:13:09;;;;;;;;;;;;;;;20.39;32.88;96100.41;4940326;28;20061;-72
2023/08/11 08:15:35;;;;;;;;;;;;;;;20.07;34.07;96103.31;4932490;28;20018;-72
2023/08/11 08:18:00;;;;;;;;;;;;;;;19.84;34.14;96107.50;4940195;29;19932;-75
2023/08/11 08:20:25;;;;;;;;;;;;;;;20.01;32.76;96107.75;4935921;28;19927;-73
2023/08/11 08:22:51;;;;;;;;;;;;;;;20.60;33.30;96099.06;4937784;28;19926;-74
2023/08/11 08:25:16;;;;;;;;;;;;;;;19.63;34.49;96103.38;4937850;28;20139;-74
2023/08/11 08:27:41;;;;;;;;;;;;;;;20.60;32.06;96106.38;4939720;28;19965;-75
2023/08/11 08:30:07;;;;;;;;;;;;;;;20.35;33.29;96096.50;4939840;29;19918;-73
2023/08/11 08:32:33;;;;;;;;;;;;;;;19.76;33.59;96102.41;4940456;28;19918;-74
2023/08/11 08:34:58;;;;;;;;;;;;;;;20.82;32.83;96098.56;4939058;28;19957;-73
2023/08/11 08:37:24;;;;;;;;;;;;;;;21.29;31.62;96088.03;4939551;28;20344;-73
2023/08/11 08:39:50;;;;;;;;;;;;;;;21.06;32.93;96095.03;4934294;28;19925;-73
2023/08/11 08:42:15;;;;;;;;;;;;;;;21.36;31.87;96091.44;4936421;28;20312;-73
2023/08/11 08:44:41;;;;;;;;;;;;;;;21.98;30.96;96100.06;4939713;28;20040;-74
2023/08/11 08:47:06;;;;;;;;;;;;;;;21.90;31.34;96104.78;4939982;28;19985;-74
2023/08/11 08:49:32;;;;;;;;;;;;;;;22.41;31.49;96106.06;4938359;28;20032;-74
2023/08/11 08:51:57;;;;;;;;;;;;;;;22.60;30.97;96103.19;4938356;28;19961;-74
2023/08/11 08:54:22;;;;;;;;;;;;;;;22.31;31.34;96111.28;4939964;28;20134;-73
2023/08/11 08:56:49;;;;;;;;;;;;;;;22.69;30.57;96106.28;4938941;28;19933;-73
2023/08/11 08:59:14;;;;;;;;;;;;;;;22.64;30.80;96107.84;4953828;28;19930;-74
2023/08/11 09:01:39;;;;;;;;;;;;;;;22.23;31.26;96109.81;4935978;28;19969;-73
2023/08/11 09:04:06;;;;;;;;;;;;;;;22.62;31.06;96112.72;4937317;28;19973;-73
2023/08/11 09:06:31;;;;;;;;;;;;;;;22.61;30.14;96113.75;4939304;28;19925;-74
2023/08/11 09:08:56;;;;;;;;;;;;;;;22.88;29.92;96113.13;4939630;28;19927;-74
2023/08/11 09:11:21;;;;;;;;;;;;;;;23.09;29.17;96104.53;4934972;28;20388;-73
2023/08/11 09:13:47;;;;;;;;;;;;;;;23.35;30.55;96104.94;4940881;29;20075;-73
2023/08/11 09:16:13;;;;;;;;;;;;;;;21.68;32.08;96109.19;4938932;28;19958;-73
2023/08/11 09:18:38;;;;;;;;;;;;;;;20.70;34.17;96109.34;4937804;28;19922;-73
2023/08/11 09:21:04;;;;;;;;;;;;;;;21.50;32.27;96108.28;4939151;28;20343;-74
2023/08/11 09:23:29;;;;;;;;;;;;;;;22.72;30.67;96103.94;4939752;28;19933;-74
2023/08/11 09:25:54;;;;;;;;;;;;;;;21.53;32.10;96106.97;4940698;28;20020;-75
2023/08/11 09:28:20;;;;;;;;;;;;;;;22.34;32.14;96108.94;4940413;28;19926;-72
2023/08/11 09:30:46;;;;;;;;;;;;;;;22.65;30.09;96106.81;4939191;28;20304;-73
2023/08/11 09:33:11;;;;;;;;;;;;;;;22.29;31.40;96103.38;4939744;28;20125;-71
2023/08/11 09:35:37;;;;;;;;;;;;;;;23.63;30.22;96087.69;4937360;28;19983;-72
2023/08/11 09:38:02;;;;;;;;;;;;;;;21.81;32.22;96103.50;4937302;28;19910;-72
2023/08/11 09:40:27;;;;;;;;;;;;;;;23.51;30.44;96092.38;4937600;28;20399;-71
2023/08/11 09:42:55;;;;;;;;;;;;;;;24.31;29.06;96088.50;4934870;28;19986;-71
2023/08/11 09:45:21;;;;;;;;;;;;;;;24.10;29.40;96096.41;4934858;28;20462;-75
2023/08/11 09:47:47;;;;;;;;;;;;;;;23.68;29.62;96093.19;4939473;28;19981;-79
2023/08/11 09:50:12;;;;;;;;;;;;;;;24.61;28.45;96097.25;4936971;29;19968;-78
2023/08/11 09:52:37;;;;;;;;;;;;;;;23.73;29.59;96102.47;4939404;28;19922;-77
2023/08/11 09:55:06;;;;;;;;;;;;;;;24.02;28.92;96102.31;4940170;29;19914;-78
2023/08/11 09:57:32;;;;;;;;;;;;;;;24.44;29.62;96104.44;4939770;28;19923;-79
2023/08/11 09:59:58;;;;;;;;;;;;;;;25.00;26.49;96098.97;4934109;28;20419;-79
2023/08/11 10:02:24;;;;;;;;;;;;;;;25.12;27.40;96099.63;4936838;29;19981;-78
2023/08/11 10:04:56;;;;;;;;;;;;;;;24.79;28.18;96109.69;4939773;28;19918;-78
2023/08/11 10:07:22;;;;;;;;;;;;;;;24.68;28.74;96106.03;4924707;29;19918;-79
2023/08/11 10:09:47;;;;;;;;;;;;;;;25.07;27.95;96100.41;4936415;28;20438;-79
2023/08/11 10:12:12;;;;;;;;;;;;;;;25.17;29.19;96105.13;4938045;28;20005;-79
2023/08/11 10:14:37;;;;;;;;;;;;;;;25.19;28.54;96097.50;4940344;29;19969;-79
2023/08/11 10:17:03;;;;;;;;;;;;;;;25.06;27.32;96106.13;4938821;28;20014;-79
2023/08/11 10:19:28;;;;;;;;;;;;;;;24.97;28.20;96105.78;4938379;28;20651;-78
2023/08/11 10:21:53;;;;;;;;;;;;;;;24.90;27.78;96106.00;4939512;29;19989;-79
2023/08/11 10:24:19;;;;;;;;;;;;;;;25.05;27.97;96102.56;4940826;28;20372;-78
2023/08/11 10:26:44;;;;;;;;;;;;;;;25.38;27.60;96105.25;4940241;29;19949;-78
2023/08/11 10:29:11;;;;;;;;;;;;;;;25.17;27.90;96098.84;4940604;28;19933;-77
2023/08/11 10:31:36;;;;;;;;;;;;;;;25.50;27.25;96099.66;4938901;28;19915;-78
2023/08/11 10:34:05;;;;;;;;;;;;;;;25.97;27.21;96100.69;4937044;28;19927;-78
2023/08/11 10:36:31;;;;;;;;;;;;;;;26.38;26.26;96093.75;4940615;28;20405;-76
2023/08/11 10:39:03;;;;;;;;;;;;;;;26.77;25.86;96099.81;4941311;28;19957;-79
2023/08/11 10:41:29;;;;;;;;;;;;;;;26.49;25.69;96100.06;4934317;28;19922;-78
2023/08/11 10:43:54;;;;;;;;;;;;;;;26.66;25.48;96099.00;4938818;28;19923;-77
2023/08/11 10:46:26;;;;;;;;;;;;;;;26.68;25.07;96099.56;4940280;29;19923;-78
2023/08/11 10:48:52;;;;;;;;;;;;;;;23.87;28.14;96100.25;4939912;28;20324;-78
2023/08/11 10:51:24;;;;;;;;;;;;;;;25.38;26.97;96097.06;4938054;29;20020;-78
2023/08/11 10:53:49;;;;;;;;;;;;;;;24.53;27.51;96098.53;4935021;28;20020;-78
2023/08/11 10:56:14;;;;;;;;;;;;;;;24.24;28.04;96101.47;4941847;28;20017;-79
2023/08/11 10:58:40;;;;;;;;;;;;;;;23.87;29.42;96095.63;4943012;29;20351;-78
2023/08/11 11:01:05;;;;;;;;;;;;;;;25.55;26.84;96098.84;4943484;28;20123;-78
2023/08/11 11:03:30;;;;;;;;;;;;;;;25.78;27.61;96091.31;4932783;28;20018;-78
2023/08/11 11:05:55;;;;;;;;;;;;;;;26.66;26.08;96090.81;4940449;29;20391;-78
2023/08/11 11:08:21;;;;;;;;;;;;;;;26.87;25.11;96094.38;4940204;28;20328;-78
2023/08/11 11:10:46;;;;;;;;;;;;;;;26.07;26.20;96088.22;4942667;28;20025;-78
2023/08/11 11:13:11;;;;;;;;;;;;;;;26.38;25.19;96082.84;4947069;28;19929;-79
2023/08/11 11:15:36;;;;;;;;;;;;;;;26.23;26.18;96076.25;4940906;28;20391;-79
2023/08/11 11:18:02;;;;;;;;;;;;;;;26.31;26.85;96076.81;4941263;28;19919;-78
2023/08/11 11:20:27;;;;;;;;;;;;;;;25.35;27.10;96083.97;4942589;28;20105;-78
2023/08/11 11:22:53;;;;;;;;;;;;;;;25.81;26.92;96074.44;4937759;29;20437;-79
2023/08/11 11:25:18;;;;;;;;;;;;;;;26.97;25.22;96066.25;4942166;28;19922;-79
2023/08/11 11:27:44;;;;;;;;;;;;;;;27.39;24.71;96075.22;4942892;28;19945;-79
2023/08/11 11:30:10;;;;;;;;;;;;;;;26.69;26.59;96073.91;4943540;28;20447;-79
2023/08/11 11:32:35;;;;;;;;;;;;;;;27.61;26.52;96076.84;4940353;28;19922;-78
2023/08/11 11:35:01;;;;;;;;;;;;;;;26.95;26.33;96077.44;4943101;29;20466;-78
2023/08/11 11:37:26;;;;;;;;;;;;;;;27.34;26.03;96078.00;4941833;28;19933;-78
2023/08/11 11:39:53;;;;;;;;;;;;;;;27.76;24.33;96068.59;4942745;28;20402;-79
2023/08/11 11:42:18;;;;;;;;;;;;;;;27.17;24.43;96076.38;4936759;29;20173;-78
2023/08/11 11:44:43;;;;;;;;;;;;;;;26.74;25.88;96080.19;4936416;28;20092;-78
2023/08/11 11:47:09;;;;;;;;;;;;;;;27.15;24.16;96067.63;4941280;29;20018;-78
2023/08/11 11:49:35;;;;;;;;;;;;;;;27.85;24.66;96081.69;4925239;29;20082;-78
2023/08/11 11:52:00;;;;;;;;;;;;;;;28.79;23.95;96084.78;4941363;28;19922;-79
2023/08/11 11:54:29;;;;;;;;;;;;;;;28.70;23.26;96084.56;4941541;29;19954;-78
2023/08/11 11:56:55;;;;;;;;;;;;;;;28.34;23.34;96077.38;4942491;28;19923;-78
2023/08/11 11:59:20;;;;;;;;;;;;;;;28.57;23.62;96080.53;4942497;28;19949;-79
2023/08/11 12:01:46;;;;;;;;;;;;;;;29.04;22.99;96075.53;4941699;28;19928;-78
2023/08/11 12:04:11;;;;;;;;;;;;;;;28.88;23.28;96077.59;4941914;28;20001;-78
2023/08/11 12:06:36;;;;;;;;;;;;;;;29.26;23.21;96079.72;4940587;28;19915;-79
2023/08/11 12:09:09;;;;;;;;;;;;;;;28.56;22.99;96086.28;4942312;28;20352;-79
2023/08/11 12:11:34;;;;;;;;;;;;;;;27.61;24.51;96077.66;4942404;28;19925;-78
2023/08/11 12:13:59;;;;;;;;;;;;;;;28.23;24.06;96076.63;4943053;28;19915;-76
2023/08/11 12:16:25;;;;;;;;;;;;;;;28.77;23.38;96076.84;4940255;28;20023;-76
2023/08/11 12:18:50;;;;;;;;;;;;;;;28.97;23.59;96077.78;4925596;29;20315;-76
2023/08/11 12:21:16;;;;;;;;;;;;;;;29.76;23.01;96075.94;4942908;28;19953;-77
2023/08/11 12:23:41;;;;;;;;;;;;;;;29.41;22.23;96072.47;4941258;28;19945;-79
2023/08/11 12:26:07;;;;;;;;;;;;;;;29.45;23.19;96070.78;4943049;28;19998;-77
2023/08/11 12:28:33;;;;;;;;;;;;;;;29.79;23.30;96061.66;4943011;28;19981;-76
2023/08/11 12:30:58;;;;;;;;;;;;;;;29.37;23.82;96060.44;4939897;28;20396;-77
2023/08/11 12:33:25;;;;;;;;;;;;;;;29.59;23.69;96065.41;4942985;28;19919;-79
2023/08/11 12:35:50;;;;;;;;;;;;;;;29.95;22.95;96069.69;4942401;28;19922;-77
2023/08/11 12:38:15;;;;;;;;;;;;;;;30.05;22.55;96063.25;4938160;28;20446;-78